sensor_id;sensor_type;location;lat;lon;timestamp;P1;durP1;ratioP1;P2;durP2;ratioP2
19946;SDS011;10135;50.702;7.276;2023-05-03T05:01:11;13.07;;;6.00;;
19946;SDS011;10135;50.702;7.276;2023-05-03T05:03:13;10.77;;;6.03;;
19946;SDS011;10135;50.702;7.276;2023-05-03T05:05:13;12.03;;;5.83;;
19946;SDS011;10135;50.702;7.276;2023-05-03T05:07:14;8.17;;;6.00;;
19946;SDS011;10135;50.702;7.276;2023-05-03T05:09:22;10.23;;;6.23;;
19946;SDS011;10135;50.702;7.276;2023-05-03T05:11:27;8.10;;;6.20;;
19946;SDS011;10135;50.702;7.276;2023-05-03T05:13:28;7.60;;;5.70;;
19946;SDS011;10135;50.702;7.276;2023-05-03T05:15:29;9.13;;;5.73;;
19946;SDS011;10135;50.702;7.276;2023-05-03T05:17:30;10.83;;;6.33;;
19946;SDS011;10135;50.702;7.276;2023-05-03T05:19:31;11.67;;;6.33;;
19946;SDS011;10135;50.702;7.276;2023-05-03T05:21:31;12.00;;;6.23;;
19946;SDS011;10135;50.702;7.276;2023-05-03T05:23:32;12.73;;;5.97;;
19946;SDS011;10135;50.702;7.276;2023-05-03T05:25:33;12.23;;;5.80;;
19946;SDS011;10135;50.702;7.276;2023-05-03T05:27:34;11.80;;;6.03;;
19946;SDS011;10135;50.702;7.276;2023-05-03T05:29:35;12.70;;;6.00;;
19946;SDS011;10135;50.702;7.276;2023-05-03T05:31:35;9.27;;;6.03;;
19946;SDS011;10135;50.702;7.276;2023-05-03T05:33:36;10.93;;;5.90;;
19946;SDS011;10135;50.702;7.276;2023-05-03T05:35:37;14.43;;;6.23;;
19946;SDS011;10135;50.702;7.276;2023-05-03T05:37:37;9.63;;;5.80;;
19946;SDS011;10135;50.702;7.276;2023-05-03T05:39:38;7.27;;;5.30;;
19946;SDS011;10135;50.702;7.276;2023-05-03T05:41:39;7.80;;;5.40;;
19946;SDS011;10135;50.702;7.276;2023-05-03T05:43:39;14.20;;;5.50;;
19946;SDS011;10135;50.702;7.276;2023-05-03T05:45:40;8.13;;;5.37;;
19946;SDS011;10135;50.702;7.276;2023-05-03T05:47:41;9.00;;;5.37;;
19946;SDS011;10135;50.702;7.276;2023-05-03T05:49:42;5.47;;;4.97;;
19946;SDS011;10135;50.702;7.276;2023-05-03T05:51:43;10.87;;;5.20;;
19946;SDS011;10135;50.702;7.276;2023-05-03T05:53:44;8.40;;;5.00;;
19946;SDS011;10135;50.702;7.276;2023-05-03T05:55:44;6.50;;;4.67;;
19946;SDS011;10135;50.702;7.276;2023-05-03T05:57:45;7.33;;;4.50;;
19946;SDS011;10135;50.702;7.276;2023-05-03T05:59:46;7.90;;;4.37;;
19946;SDS011;10135;50.702;7.276;2023-05-03T06:01:47;8.03;;;4.70;;
19946;SDS011;10135;50.702;7.276;2023-05-03T06:03:47;6.93;;;4.53;;
19946;SDS011;10135;50.702;7.276;2023-05-03T06:05:51;5.97;;;4.50;;
19946;SDS011;10135;50.702;7.276;2023-05-03T06:07:51;6.90;;;4.80;;
19946;SDS011;10135;50.702;7.276;2023-05-03T06:09:52;7.73;;;4.70;;
19946;SDS011;10135;50.702;7.276;2023-05-03T06:11:52;8.03;;;3.97;;
19946;SDS011;10135;50.702;7.276;2023-05-03T06:13:53;6.37;;;4.50;;
19946;SDS011;10135;50.702;7.276;2023-05-03T06:15:56;5.70;;;4.60;;
19946;SDS011;10135;50.702;7.276;2023-05-03T06:17:56;5.60;;;4.43;;
19946;SDS011;10135;50.702;7.276;2023-05-03T06:19:57;8.17;;;4.20;;
19946;SDS011;10135;50.702;7.276;2023-05-03T06:21:58;7.33;;;4.10;;
19946;SDS011;10135;50.702;7.276;2023-05-03T06:23:58;5.70;;;4.50;;
19946;SDS011;10135;50.702;7.276;2023-05-03T06:25:59;5.17;;;4.00;;
19946;SDS011;10135;50.702;7.276;2023-05-03T06:28:00;4.27;;;3.77;;
19946;SDS011;10135;50.702;7.276;2023-05-03T06:30:00;7.40;;;3.93;;
19946;SDS011;10135;50.702;7.276;2023-05-03T06:32:01;5.53;;;4.00;;
19946;SDS011;10135;50.702;7.276;2023-05-03T06:34:02;5.10;;;4.07;;
19946;SDS011;10135;50.702;7.276;2023-05-03T06:36:02;5.83;;;3.97;;
19946;SDS011;10135;50.702;7.276;2023-05-03T06:38:04;6.43;;;3.83;;
19946;SDS011;10135;50.702;7.276;2023-05-03T06:40:04;6.60;;;3.83;;
19946;SDS011;10135;50.702;7.276;2023-05-03T06:42:06;6.00;;;4.10;;
19946;SDS011;10135;50.702;7.276;2023-05-03T06:44:07;6.03;;;4.23;;
19946;SDS011;10135;50.702;7.276;2023-05-03T06:46:07;6.67;;;4.40;;
19946;SDS011;10135;50.702;7.276;2023-05-03T06:48:08;5.47;;;4.13;;
19946;SDS011;10135;50.702;7.276;2023-05-03T06:50:09;7.10;;;3.80;;
19946;SDS011;10135;50.702;7.276;2023-05-03T06:52:10;5.40;;;3.77;;
19946;SDS011;10135;50.702;7.276;2023-05-03T06:54:10;5.05;;;3.65;;
19946;SDS011;10135;50.702;7.276;2023-05-03T06:56:11;4.85;;;3.67;;
19946;SDS011;10135;50.702;7.276;2023-05-03T06:58:12;3.80;;;3.50;;
19946;SDS011;10135;50.702;7.276;2023-05-03T07:00:13;5.10;;;3.65;;
19946;SDS011;10135;50.702;7.276;2023-05-03T07:02:14;4.55;;;3.55;;
19946;SDS011;10135;50.702;7.276;2023-05-03T07:04:17;5.90;;;3.58;;
19946;SDS011;10135;50.702;7.276;2023-05-03T07:06:17;4.68;;;3.50;;
19946;SDS011;10135;50.702;7.276;2023-05-03T07:08:18;4.60;;;3.75;;
19946;SDS011;10135;50.702;7.276;2023-05-03T07:10:19;4.57;;;3.47;;
19946;SDS011;10135;50.702;7.276;2023-05-03T07:12:20;4.53;;;3.58;;
19946;SDS011;10135;50.702;7.276;2023-05-03T07:14:26;4.05;;;3.65;;
19946;SDS011;10135;50.702;7.276;2023-05-03T07:16:27;4.05;;;3.25;;
19946;SDS011;10135;50.702;7.276;2023-05-03T07:18:28;4.65;;;3.30;;
19946;SDS011;10135;50.702;7.276;2023-05-03T07:20:28;3.38;;;3.08;;
19946;SDS011;10135;50.702;7.276;2023-05-03T07:22:29;3.65;;;3.20;;
19946;SDS011;10135;50.702;7.276;2023-05-03T07:24:29;4.05;;;3.17;;
19946;SDS011;10135;50.702;7.276;2023-05-03T07:26:30;3.57;;;3.27;;
19946;SDS011;10135;50.702;7.276;2023-05-03T07:28:31;4.00;;;3.50;;
19946;SDS011;10135;50.702;7.276;2023-05-03T07:30:32;3.80;;;3.30;;
19946;SDS011;10135;50.702;7.276;2023-05-03T07:32:32;5.97;;;3.60;;
19946;SDS011;10135;50.702;7.276;2023-05-03T07:34:33;5.33;;;3.30;;
19946;SDS011;10135;50.702;7.276;2023-05-03T07:36:34;5.47;;;3.30;;
19946;SDS011;10135;50.702;7.276;2023-05-03T07:38:34;6.10;;;3.47;;
19946;SDS011;10135;50.702;7.276;2023-05-03T07:40:35;4.53;;;3.60;;
19946;SDS011;10135;50.702;7.276;2023-05-03T07:42:36;3.53;;;3.20;;
19946;SDS011;10135;50.702;7.276;2023-05-03T07:44:36;3.77;;;3.37;;
19946;SDS011;10135;50.702;7.276;2023-05-03T07:46:37;4.50;;;3.47;;
19946;SDS011;10135;50.702;7.276;2023-05-03T07:48:38;3.67;;;3.27;;
19946;SDS011;10135;50.702;7.276;2023-05-03T07:50:40;3.67;;;3.33;;
19946;SDS011;10135;50.702;7.276;2023-05-03T07:52:42;6.37;;;3.37;;
19946;SDS011;10135;50.702;7.276;2023-05-03T07:54:43;4.43;;;3.23;;
19946;SDS011;10135;50.702;7.276;2023-05-03T07:56:47;4.97;;;3.40;;
19946;SDS011;10135;50.702;7.276;2023-05-03T07:58:48;4.30;;;3.40;;
19946;SDS011;10135;50.702;7.276;2023-05-03T08:00:48;4.00;;;3.27;;
19946;SDS011;10135;50.702;7.276;2023-05-03T08:02:49;6.57;;;3.80;;
19946;SDS011;10135;50.702;7.276;2023-05-03T08:04:50;5.10;;;3.22;;
19946;SDS011;10135;50.702;7.276;2023-05-03T08:06:50;4.47;;;3.20;;
19946;SDS011;10135;50.702;7.276;2023-05-03T08:08:51;3.78;;;3.50;;
19946;SDS011;10135;50.702;7.276;2023-05-03T08:10:52;8.37;;;3.50;;
19946;SDS011;10135;50.702;7.276;2023-05-03T08:12:58;3.30;;;3.00;;
19946;SDS011;10135;50.702;7.276;2023-05-03T08:14:59;3.93;;;3.63;;
19946;SDS011;10135;50.702;7.276;2023-05-03T08:16:59;4.33;;;3.80;;
19946;SDS011;10135;50.702;7.276;2023-05-03T08:19:00;7.27;;;3.70;;
19946;SDS011;10135;50.702;7.276;2023-05-03T08:21:01;5.30;;;3.50;;
19946;SDS011;10135;50.702;7.276;2023-05-03T08:23:01;4.17;;;3.60;;
19946;SDS011;10135;50.702;7.276;2023-05-03T08:25:03;4.50;;;3.23;;
19946;SDS011;10135;50.702;7.276;2023-05-03T08:27:04;4.30;;;3.33;;
19946;SDS011;10135;50.702;7.276;2023-05-03T08:29:06;5.43;;;3.80;;
19946;SDS011;10135;50.702;7.276;2023-05-03T08:31:07;3.77;;;3.37;;
19946;SDS011;10135;50.702;7.276;2023-05-03T08:33:08;5.30;;;3.40;;
19946;SDS011;10135;50.702;7.276;2023-05-03T08:35:08;4.93;;;3.00;;
19946;SDS011;10135;50.702;7.276;2023-05-03T08:37:09;3.80;;;3.40;;
19946;SDS011;10135;50.702;7.276;2023-05-03T08:39:10;4.77;;;3.60;;
19946;SDS011;10135;50.702;7.276;2023-05-03T08:41:29;5.00;;;3.60;;
19946;SDS011;10135;50.702;7.276;2023-05-03T08:43:30;8.10;;;3.87;;
19946;SDS011;10135;50.702;7.276;2023-05-03T08:45:38;4.47;;;3.50;;
19946;SDS011;10135;50.702;7.276;2023-05-03T08:47:38;6.40;;;3.20;;
19946;SDS011;10135;50.702;7.276;2023-05-03T08:49:40;7.60;;;3.70;;
19946;SDS011;10135;50.702;7.276;2023-05-03T08:51:43;3.73;;;3.43;;
19946;SDS011;10135;50.702;7.276;2023-05-03T08:53:48;3.67;;;3.37;;
19946;SDS011;10135;50.702;7.276;2023-05-03T08:55:49;3.77;;;3.40;;
19946;SDS011;10135;50.702;7.276;2023-05-03T08:57:50;3.63;;;3.33;;
19946;SDS011;10135;50.702;7.276;2023-05-03T08:59:51;5.63;;;3.43;;
19946;SDS011;10135;50.702;7.276;2023-05-03T09:01:56;5.90;;;3.40;;
19946;SDS011;10135;50.702;7.276;2023-05-03T09:03:56;4.47;;;3.37;;
19946;SDS011;10135;50.702;7.276;2023-05-03T09:05:57;5.13;;;3.10;;
19946;SDS011;10135;50.702;7.276;2023-05-03T09:10:31;3.13;;;2.83;;
19946;SDS011;10135;50.702;7.276;2023-05-03T09:12:35;4.33;;;3.30;;
19946;SDS011;10135;50.702;7.276;2023-05-03T09:14:43;5.70;;;3.10;;
19946;SDS011;10135;50.702;7.276;2023-05-03T09:16:45;3.50;;;3.20;;
19946;SDS011;10135;50.702;7.276;2023-05-03T09:18:55;4.87;;;3.53;;
19946;SDS011;10135;50.702;7.276;2023-05-03T09:21:00;3.83;;;3.53;;
19946;SDS011;10135;50.702;7.276;2023-05-03T09:23:01;5.43;;;3.40;;
19946;SDS011;10135;50.702;7.276;2023-05-03T09:25:02;3.97;;;3.13;;
19946;SDS011;10135;50.702;7.276;2023-05-03T09:27:04;4.60;;;3.57;;
19946;SDS011;10135;50.702;7.276;2023-05-03T09:29:26;7.47;;;3.50;;
19946;SDS011;10135;50.702;7.276;2023-05-03T09:31:35;9.07;;;3.60;;
19946;SDS011;10135;50.702;7.276;2023-05-03T09:33:36;5.10;;;3.67;;
19946;SDS011;10135;50.702;7.276;2023-05-03T09:35:37;4.17;;;3.23;;
19946;SDS011;10135;50.702;7.276;2023-05-03T09:37:54;3.83;;;3.17;;
19946;SDS011;10135;50.702;7.276;2023-05-03T09:40:03;3.80;;;3.43;;
19946;SDS011;10135;50.702;7.276;2023-05-03T09:42:10;5.63;;;3.53;;
19946;SDS011;10135;50.702;7.276;2023-05-03T09:44:16;4.23;;;2.93;;
19946;SDS011;10135;50.702;7.276;2023-05-03T09:46:17;4.13;;;3.40;;
19946;SDS011;10135;50.702;7.276;2023-05-03T09:48:18;4.60;;;3.60;;
19946;SDS011;10135;50.702;7.276;2023-05-03T09:50:22;3.73;;;3.13;;
19946;SDS011;10135;50.702;7.276;2023-05-03T09:52:24;3.20;;;2.97;;
19946;SDS011;10135;50.702;7.276;2023-05-03T09:54:29;5.53;;;3.27;;
19946;SDS011;10135;50.702;7.276;2023-05-03T09:56:30;3.70;;;3.40;;
19946;SDS011;10135;50.702;7.276;2023-05-03T09:58:31;4.30;;;3.33;;
19946;SDS011;10135;50.702;7.276;2023-05-03T10:02:40;4.00;;;3.57;;
19946;SDS011;10135;50.702;7.276;2023-05-03T10:04:45;6.43;;;3.57;;
19946;SDS011;10135;50.702;7.276;2023-05-03T10:06:51;3.53;;;2.80;;
19946;SDS011;10135;50.702;7.276;2023-05-03T10:09:13;3.87;;;3.30;;
19946;SDS011;10135;50.702;7.276;2023-05-03T10:11:22;3.17;;;2.93;;
19946;SDS011;10135;50.702;7.276;2023-05-03T10:13:26;3.43;;;3.07;;
19946;SDS011;10135;50.702;7.276;2023-05-03T10:15:28;4.27;;;3.10;;
19946;SDS011;10135;50.702;7.276;2023-05-03T10:17:31;3.43;;;3.13;;
19946;SDS011;10135;50.702;7.276;2023-05-03T10:19:51;5.73;;;3.37;;
19946;SDS011;10135;50.702;7.276;2023-05-03T10:24:08;2.70;;;2.60;;
19946;SDS011;10135;50.702;7.276;2023-05-03T10:26:14;3.87;;;2.93;;
19946;SDS011;10135;50.702;7.276;2023-05-03T10:28:15;4.07;;;3.13;;
19946;SDS011;10135;50.702;7.276;2023-05-03T10:32:37;3.50;;;3.20;;
19946;SDS011;10135;50.702;7.276;2023-05-03T10:34:41;5.40;;;3.07;;
19946;SDS011;10135;50.702;7.276;2023-05-03T10:36:42;5.40;;;3.13;;
19946;SDS011;10135;50.702;7.276;2023-05-03T10:38:46;7.20;;;3.10;;
19946;SDS011;10135;50.702;7.276;2023-05-03T10:40:47;4.10;;;3.10;;
19946;SDS011;10135;50.702;7.276;2023-05-03T10:42:53;4.67;;;3.00;;
19946;SDS011;10135;50.702;7.276;2023-05-03T10:44:59;4.30;;;3.40;;
19946;SDS011;10135;50.702;7.276;2023-05-03T10:47:14;4.30;;;3.20;;
19946;SDS011;10135;50.702;7.276;2023-05-03T10:49:18;3.77;;;3.30;;
19946;SDS011;10135;50.702;7.276;2023-05-03T10:51:33;3.50;;;3.20;;
19946;SDS011;10135;50.702;7.276;2023-05-03T10:53:39;3.23;;;2.93;;
19946;SDS011;10135;50.702;7.276;2023-05-03T10:55:51;4.47;;;2.60;;
19946;SDS011;10135;50.702;7.276;2023-05-03T10:58:12;2.87;;;2.67;;
19946;SDS011;10135;50.702;7.276;2023-05-03T11:02:16;3.20;;;3.00;;
19946;SDS011;10135;50.702;7.276;2023-05-03T11:04:31;3.00;;;2.80;;
19946;SDS011;10135;50.702;7.276;2023-05-03T11:06:39;2.77;;;2.50;;
19946;SDS011;10135;50.702;7.276;2023-05-03T11:08:40;2.40;;;2.30;;
19946;SDS011;10135;50.702;7.276;2023-05-03T11:10:48;3.17;;;2.77;;
19946;SDS011;10135;50.702;7.276;2023-05-03T11:12:56;3.13;;;2.93;;
19946;SDS011;10135;50.702;7.276;2023-05-03T11:14:56;2.90;;;2.60;;
19946;SDS011;10135;50.702;7.276;2023-05-03T11:16:57;3.47;;;2.73;;
19946;SDS011;10135;50.702;7.276;2023-05-03T11:18:58;4.27;;;2.70;;
19946;SDS011;10135;50.702;7.276;2023-05-03T11:21:00;2.77;;;2.57;;
19946;SDS011;10135;50.702;7.276;2023-05-03T11:23:02;3.13;;;2.83;;
19946;SDS011;10135;50.702;7.276;2023-05-03T11:25:05;2.80;;;2.60;;
19946;SDS011;10135;50.702;7.276;2023-05-03T11:27:06;4.27;;;2.43;;
19946;SDS011;10135;50.702;7.276;2023-05-03T11:29:10;2.20;;;2.10;;
19946;SDS011;10135;50.702;7.276;2023-05-03T11:31:12;2.37;;;2.13;;
19946;SDS011;10135;50.702;7.276;2023-05-03T11:33:13;2.60;;;2.33;;
19946;SDS011;10135;50.702;7.276;2023-05-03T11:35:15;2.40;;;2.17;;
19946;SDS011;10135;50.702;7.276;2023-05-03T11:37:16;5.57;;;2.30;;
19946;SDS011;10135;50.702;7.276;2023-05-03T11:39:17;3.77;;;2.27;;
19946;SDS011;10135;50.702;7.276;2023-05-03T11:41:18;2.37;;;2.13;;
19946;SDS011;10135;50.702;7.276;2023-05-03T11:43:19;3.97;;;2.10;;
19946;SDS011;10135;50.702;7.276;2023-05-03T11:45:23;2.10;;;2.00;;
19946;SDS011;10135;50.702;7.276;2023-05-03T11:47:31;3.70;;;2.23;;
19946;SDS011;10135;50.702;7.276;2023-05-03T11:49:31;4.27;;;2.00;;
19946;SDS011;10135;50.702;7.276;2023-05-03T11:51:32;2.67;;;2.10;;
19946;SDS011;10135;50.702;7.276;2023-05-03T11:53:35;2.67;;;2.47;;
19946;SDS011;10135;50.702;7.276;2023-05-03T11:55:41;2.10;;;1.90;;
19946;SDS011;10135;50.702;7.276;2023-05-03T11:57:47;3.30;;;2.17;;
19946;SDS011;10135;50.702;7.276;2023-05-03T11:59:48;2.10;;;2.00;;
19946;SDS011;10135;50.702;7.276;2023-05-03T12:01:51;2.00;;;1.90;;
19946;SDS011;10135;50.702;7.276;2023-05-03T12:03:53;2.20;;;2.00;;
19946;SDS011;10135;50.702;7.276;2023-05-03T12:05:57;2.33;;;2.13;;
19946;SDS011;10135;50.702;7.276;2023-05-03T12:07:59;2.70;;;1.73;;
19946;SDS011;10135;50.702;7.276;2023-05-03T12:10:10;2.00;;;1.90;;
19946;SDS011;10135;50.702;7.276;2023-05-03T12:12:17;3.03;;;2.43;;
19946;SDS011;10135;50.702;7.276;2023-05-03T12:14:18;2.37;;;2.10;;
19946;SDS011;10135;50.702;7.276;2023-05-03T12:16:20;2.40;;;2.00;;
19946;SDS011;10135;50.702;7.276;2023-05-03T12:18:21;2.23;;;2.10;;
19946;SDS011;10135;50.702;7.276;2023-05-03T12:20:22;5.20;;;2.00;;
19946;SDS011;10135;50.702;7.276;2023-05-03T12:22:25;3.40;;;2.20;;
19946;SDS011;10135;50.702;7.276;2023-05-03T12:24:27;2.13;;;2.03;;
19946;SDS011;10135;50.702;7.276;2023-05-03T12:26:28;1.70;;;1.60;;
19946;SDS011;10135;50.702;7.276;2023-05-03T12:28:28;3.83;;;2.23;;
19946;SDS011;10135;50.702;7.276;2023-05-03T12:30:29;2.20;;;2.00;;
19946;SDS011;10135;50.702;7.276;2023-05-03T12:32:31;1.93;;;1.90;;
19946;SDS011;10135;50.702;7.276;2023-05-03T12:34:32;2.13;;;1.93;;
19946;SDS011;10135;50.702;7.276;2023-05-03T12:36:33;2.13;;;2.00;;
19946;SDS011;10135;50.702;7.276;2023-05-03T12:38:34;2.43;;;2.07;;
19946;SDS011;10135;50.702;7.276;2023-05-03T12:40:35;1.90;;;1.80;;
19946;SDS011;10135;50.702;7.276;2023-05-03T12:42:35;2.77;;;2.30;;
19946;SDS011;10135;50.702;7.276;2023-05-03T12:44:39;3.50;;;2.20;;
19946;SDS011;10135;50.702;7.276;2023-05-03T12:46:41;2.20;;;2.10;;
19946;SDS011;10135;50.702;7.276;2023-05-03T12:48:41;2.28;;;2.13;;
19946;SDS011;10135;50.702;7.276;2023-05-03T12:50:42;2.47;;;1.83;;
19946;SDS011;10135;50.702;7.276;2023-05-03T12:52:43;2.90;;;1.80;;
19946;SDS011;10135;50.702;7.276;2023-05-03T12:54:43;1.80;;;1.70;;
19946;SDS011;10135;50.702;7.276;2023-05-03T12:56:45;1.90;;;1.80;;
19946;SDS011;10135;50.702;7.276;2023-05-03T12:58:46;2.17;;;1.97;;
19946;SDS011;10135;50.702;7.276;2023-05-03T13:00:48;3.28;;;2.17;;
19946;SDS011;10135;50.702;7.276;2023-05-03T13:02:49;2.10;;;2.00;;
19946;SDS011;10135;50.702;7.276;2023-05-03T13:04:50;2.33;;;2.10;;
19946;SDS011;10135;50.702;7.276;2023-05-03T13:06:54;5.10;;;1.98;;
19946;SDS011;10135;50.702;7.276;2023-05-03T13:08:55;2.28;;;1.85;;
19946;SDS011;10135;50.702;7.276;2023-05-03T13:10:56;1.83;;;1.73;;
19946;SDS011;10135;50.702;7.276;2023-05-03T13:12:57;3.78;;;1.90;;
19946;SDS011;10135;50.702;7.276;2023-05-03T13:14:57;1.98;;;1.55;;
19946;SDS011;10135;50.702;7.276;2023-05-03T13:17:01;2.75;;;1.88;;
19946;SDS011;10135;50.702;7.276;2023-05-03T13:19:02;2.60;;;2.10;;
19946;SDS011;10135;50.702;7.276;2023-05-03T13:21:02;2.08;;;1.67;;
19946;SDS011;10135;50.702;7.276;2023-05-03T13:23:04;3.65;;;1.70;;
19946;SDS011;10135;50.702;7.276;2023-05-03T13:25:04;1.92;;;1.80;;
19946;SDS011;10135;50.702;7.276;2023-05-03T13:27:06;1.83;;;1.73;;
19946;SDS011;10135;50.702;7.276;2023-05-03T13:29:09;2.53;;;1.73;;
19946;SDS011;10135;50.702;7.276;2023-05-03T13:31:11;1.88;;;1.77;;
19946;SDS011;10135;50.702;7.276;2023-05-03T13:33:12;3.30;;;2.13;;
19946;SDS011;10135;50.702;7.276;2023-05-03T13:35:13;1.75;;;1.73;;
19946;SDS011;10135;50.702;7.276;2023-05-03T13:37:15;2.50;;;1.80;;
19946;SDS011;10135;50.702;7.276;2023-05-03T13:39:18;1.80;;;1.70;;
19946;SDS011;10135;50.702;7.276;2023-05-03T13:41:19;1.60;;;1.50;;
19946;SDS011;10135;50.702;7.276;2023-05-03T13:43:21;1.80;;;1.70;;
19946;SDS011;10135;50.702;7.276;2023-05-03T13:45:22;1.73;;;1.63;;
19946;SDS011;10135;50.702;7.276;2023-05-03T13:47:22;1.83;;;1.48;;
19946;SDS011;10135;50.702;7.276;2023-05-03T13:49:23;1.85;;;1.75;;
19946;SDS011;10135;50.702;7.276;2023-05-03T13:51:24;1.60;;;1.50;;
19946;SDS011;10135;50.702;7.276;2023-05-03T13:53:27;2.65;;;1.58;;
19946;SDS011;10135;50.702;7.276;2023-05-03T13:55:28;2.78;;;1.65;;
19946;SDS011;10135;50.702;7.276;2023-05-03T13:57:28;1.73;;;1.63;;
19946;SDS011;10135;50.702;7.276;2023-05-03T13:59:29;3.10;;;1.77;;
19946;SDS011;10135;50.702;7.276;2023-05-03T14:01:30;2.55;;;1.95;;
19946;SDS011;10135;50.702;7.276;2023-05-03T14:03:31;1.73;;;1.60;;
19946;SDS011;10135;50.702;7.276;2023-05-03T14:05:32;4.07;;;1.80;;
19946;SDS011;10135;50.702;7.276;2023-05-03T14:07:34;1.77;;;1.67;;
19946;SDS011;10135;50.702;7.276;2023-05-03T14:09:34;1.90;;;1.42;;
19946;SDS011;10135;50.702;7.276;2023-05-03T14:11:39;2.70;;;1.80;;
19946;SDS011;10135;50.702;7.276;2023-05-03T14:13:40;2.47;;;1.80;;
19946;SDS011;10135;50.702;7.276;2023-05-03T14:15:42;2.28;;;1.70;;
19946;SDS011;10135;50.702;7.276;2023-05-03T14:17:47;1.52;;;1.42;;
19946;SDS011;10135;50.702;7.276;2023-05-03T14:19:48;1.75;;;1.70;;
19946;SDS011;10135;50.702;7.276;2023-05-03T14:21:49;3.17;;;1.80;;
19946;SDS011;10135;50.702;7.276;2023-05-03T14:23:50;3.33;;;1.88;;
19946;SDS011;10135;50.702;7.276;2023-05-03T14:25:51;2.85;;;1.52;;
19946;SDS011;10135;50.702;7.276;2023-05-03T14:27:51;1.92;;;1.77;;
19946;SDS011;10135;50.702;7.276;2023-05-03T14:29:52;2.50;;;1.45;;
19946;SDS011;10135;50.702;7.276;2023-05-03T14:31:53;2.03;;;1.60;;
19946;SDS011;10135;50.702;7.276;2023-05-03T14:33:55;1.60;;;1.50;;
19946;SDS011;10135;50.702;7.276;2023-05-03T14:35:56;1.85;;;1.63;;
19946;SDS011;10135;50.702;7.276;2023-05-03T14:37:56;1.60;;;1.50;;
19946;SDS011;10135;50.702;7.276;2023-05-03T14:39:57;2.33;;;1.42;;
19946;SDS011;10135;50.702;7.276;2023-05-03T14:41:58;1.80;;;1.70;;
19946;SDS011;10135;50.702;7.276;2023-05-03T14:43:58;1.52;;;1.50;;
19946;SDS011;10135;50.702;7.276;2023-05-03T14:45:59;2.53;;;1.70;;
19946;SDS011;10135;50.702;7.276;2023-05-03T14:48:01;1.55;;;1.45;;
19946;SDS011;10135;50.702;7.276;2023-05-03T14:50:02;1.42;;;1.33;;
19946;SDS011;10135;50.702;7.276;2023-05-03T14:52:03;2.17;;;1.40;;
19946;SDS011;10135;50.702;7.276;2023-05-03T14:54:04;2.70;;;1.48;;
19946;SDS011;10135;50.702;7.276;2023-05-03T14:56:05;2.08;;;1.30;;
19946;SDS011;10135;50.702;7.276;2023-05-03T14:58:06;4.32;;;1.42;;
19946;SDS011;10135;50.702;7.276;2023-05-03T15:00:08;1.40;;;1.30;;
19946;SDS011;10135;50.702;7.276;2023-05-03T15:02:13;3.35;;;1.40;;
19946;SDS011;10135;50.702;7.276;2023-05-03T15:04:13;4.78;;;1.70;;
19946;SDS011;10135;50.702;7.276;2023-05-03T15:06:20;1.30;;;1.20;;
19946;SDS011;10135;50.702;7.276;2023-05-03T15:08:23;1.85;;;1.30;;
19946;SDS011;10135;50.702;7.276;2023-05-03T15:10:24;1.20;;;1.20;;
19946;SDS011;10135;50.702;7.276;2023-05-03T15:12:25;1.58;;;1.20;;
19946;SDS011;10135;50.702;7.276;2023-05-03T15:14:25;1.38;;;1.30;;
19946;SDS011;10135;50.702;7.276;2023-05-03T15:16:26;1.48;;;1.27;;
19946;SDS011;10135;50.702;7.276;2023-05-03T15:18:27;1.13;;;1.10;;
19946;SDS011;10135;50.702;7.276;2023-05-03T15:20:28;1.60;;;1.50;;
19946;SDS011;10135;50.702;7.276;2023-05-03T15:22:28;1.42;;;1.30;;
19946;SDS011;10135;50.702;7.276;2023-05-03T15:24:29;1.77;;;1.67;;
19946;SDS011;10135;50.702;7.276;2023-05-03T15:26:30;1.50;;;1.40;;
19946;SDS011;10135;50.702;7.276;2023-05-03T15:28:31;1.58;;;1.33;;
19946;SDS011;10135;50.702;7.276;2023-05-03T15:30:32;2.17;;;1.30;;
19946;SDS011;10135;50.702;7.276;2023-05-03T15:32:33;4.93;;;1.30;;
19946;SDS011;10135;50.702;7.276;2023-05-03T15:34:34;1.45;;;1.35;;
19946;SDS011;10135;50.702;7.276;2023-05-03T15:36:36;1.90;;;1.40;;
19946;SDS011;10135;50.702;7.276;2023-05-03T15:38:37;2.15;;;1.40;;
19946;SDS011;10135;50.702;7.276;2023-05-03T15:40:40;2.38;;;1.27;;
19946;SDS011;10135;50.702;7.276;2023-05-03T15:42:41;1.70;;;1.35;;
19946;SDS011;10135;50.702;7.276;2023-05-03T15:44:41;2.58;;;1.60;;
19946;SDS011;10135;50.702;7.276;2023-05-03T15:46:45;1.27;;;1.27;;
19946;SDS011;10135;50.702;7.276;2023-05-03T15:48:46;3.15;;;1.13;;
19946;SDS011;10135;50.702;7.276;2023-05-03T15:50:47;1.13;;;1.13;;
19946;SDS011;10135;50.702;7.276;2023-05-03T15:52:48;1.50;;;1.40;;
19946;SDS011;10135;50.702;7.276;2023-05-03T15:54:50;2.30;;;1.30;;
19946;SDS011;10135;50.702;7.276;2023-05-03T15:56:50;1.10;;;1.10;;
19946;SDS011;10135;50.702;7.276;2023-05-03T15:58:52;1.40;;;1.30;;
19946;SDS011;10135;50.702;7.276;2023-05-03T16:00:53;1.10;;;1.10;;
19946;SDS011;10135;50.702;7.276;2023-05-03T16:02:55;1.48;;;1.38;;
19946;SDS011;10135;50.702;7.276;2023-05-03T16:04:56;1.85;;;1.27;;
19946;SDS011;10135;50.702;7.276;2023-05-03T16:06:57;1.50;;;1.40;;
19946;SDS011;10135;50.702;7.276;2023-05-03T16:08:58;1.23;;;1.10;;
19946;SDS011;10135;50.702;7.276;2023-05-03T16:10:58;1.67;;;1.48;;
19946;SDS011;10135;50.702;7.276;2023-05-03T16:13:00;1.55;;;1.20;;
19946;SDS011;10135;50.702;7.276;2023-05-03T16:15:00;1.73;;;1.50;;
19946;SDS011;10135;50.702;7.276;2023-05-03T16:17:01;1.50;;;1.40;;
19946;SDS011;10135;50.702;7.276;2023-05-03T16:19:02;1.65;;;1.40;;
19946;SDS011;10135;50.702;7.276;2023-05-03T16:21:03;1.20;;;1.20;;
19946;SDS011;10135;50.702;7.276;2023-05-03T16:23:04;1.35;;;1.30;;
19946;SDS011;10135;50.702;7.276;2023-05-03T16:25:04;1.40;;;1.30;;
19946;SDS011;10135;50.702;7.276;2023-05-03T16:27:06;1.15;;;1.15;;
19946;SDS011;10135;50.702;7.276;2023-05-03T16:29:07;1.58;;;1.40;;
19946;SDS011;10135;50.702;7.276;2023-05-03T16:31:09;1.20;;;1.20;;
19946;SDS011;10135;50.702;7.276;2023-05-03T16:33:10;2.25;;;1.10;;
19946;SDS011;10135;50.702;7.276;2023-05-03T16:35:10;1.30;;;1.30;;
19946;SDS011;10135;50.702;7.276;2023-05-03T16:37:11;1.02;;;1.02;;
19946;SDS011;10135;50.702;7.276;2023-05-03T16:39:12;1.42;;;1.33;;
19946;SDS011;10135;50.702;7.276;2023-05-03T16:41:13;3.15;;;1.10;;
19946;SDS011;10135;50.702;7.276;2023-05-03T16:43:14;2.22;;;1.20;;
19946;SDS011;10135;50.702;7.276;2023-05-03T16:45:17;3.55;;;1.33;;
19946;SDS011;10135;50.702;7.276;2023-05-03T16:47:18;3.35;;;1.35;;
19946;SDS011;10135;50.702;7.276;2023-05-03T16:49:20;1.70;;;1.35;;
19946;SDS011;10135;50.702;7.276;2023-05-03T16:51:21;1.58;;;1.48;;
19946;SDS011;10135;50.702;7.276;2023-05-03T16:53:22;2.70;;;1.30;;
19946;SDS011;10135;50.702;7.276;2023-05-03T16:55:23;1.33;;;1.20;;
19946;SDS011;10135;50.702;7.276;2023-05-03T16:57:24;2.10;;;1.40;;
19946;SDS011;10135;50.702;7.276;2023-05-03T16:59:25;1.75;;;1.30;;
19946;SDS011;10135;50.702;7.276;2023-05-03T17:01:26;2.28;;;1.52;;
19946;SDS011;10135;50.702;7.276;2023-05-03T17:03:27;1.30;;;1.30;;
19946;SDS011;10135;50.702;7.276;2023-05-03T17:05:28;1.33;;;1.20;;
19946;SDS011;10135;50.702;7.276;2023-05-03T17:07:31;1.23;;;1.20;;
19946;SDS011;10135;50.702;7.276;2023-05-03T17:09:34;1.30;;;1.30;;
19946;SDS011;10135;50.702;7.276;2023-05-03T17:11:35;1.65;;;1.40;;
19946;SDS011;10135;50.702;7.276;2023-05-03T17:13:36;1.92;;;1.10;;
19946;SDS011;10135;50.702;7.276;2023-05-03T17:15:37;1.30;;;1.20;;
19946;SDS011;10135;50.702;7.276;2023-05-03T17:17:38;2.70;;;1.35;;
19946;SDS011;10135;50.702;7.276;2023-05-03T17:19:39;1.48;;;1.45;;
19946;SDS011;10135;50.702;7.276;2023-05-03T17:21:39;1.40;;;1.30;;
19946;SDS011;10135;50.702;7.276;2023-05-03T17:23:40;1.95;;;1.38;;
19946;SDS011;10135;50.702;7.276;2023-05-03T17:25:41;3.38;;;1.50;;
19946;SDS011;10135;50.702;7.276;2023-05-03T17:27:41;2.00;;;1.25;;